createdAt,value
2019-03-29T00:02:14.164Z,23.40
2019-03-29T00:04:43.732Z,22.53
2019-03-29T00:07:13.611Z,22.93
2019-03-29T00:09:43.158Z,22.57
2019-03-29T00:12:13.858Z,22.50
2019-03-29T00:14:46.663Z,23.83
2019-03-29T00:17:17.919Z,22.93
2019-03-29T00:19:47.731Z,23.00
2019-03-29T00:22:17.318Z,23.10
2019-03-29T00:28:39.344Z,22.80
2019-03-29T00:31:15.471Z,39.63
2019-03-29T00:37:02.662Z,23.47
2019-03-29T00:39:32.280Z,25.27
2019-03-29T00:42:01.968Z,23.93
2019-03-29T00:44:31.633Z,24.33
2019-03-29T00:47:01.327Z,22.07
2019-03-29T00:49:31.170Z,25.10
2019-03-29T00:52:00.850Z,23.00
2019-03-29T00:54:30.524Z,24.17
2019-03-29T00:57:00.290Z,22.73
2019-03-29T00:59:30.074Z,24.10
2019-03-29T01:01:59.710Z,23.90
2019-03-29T01:04:29.394Z,89.60
2019-03-29T01:06:59.545Z,26.77
2019-03-29T01:09:52.712Z,35.33
2019-03-29T01:12:22.418Z,23.30
2019-03-29T01:14:52.106Z,23.77
2019-03-29T01:17:21.534Z,23.00
2019-03-29T01:19:51.156Z,22.73
2019-03-29T01:22:20.532Z,22.33
2019-03-29T01:24:50.072Z,21.27
2019-03-29T01:27:19.680Z,22.07
2019-03-29T01:29:49.373Z,20.07
2019-03-29T01:32:18.855Z,19.53
2019-03-29T01:34:48.905Z,20.13
2019-03-29T01:37:19.842Z,17.43
2019-03-29T01:39:49.542Z,19.53
2019-03-29T01:42:19.468Z,18.90
2019-03-29T01:44:49.056Z,18.20
2019-03-29T01:47:18.606Z,18.40
2019-03-29T01:49:48.054Z,20.27
2019-03-29T01:52:17.726Z,19.33
2019-03-29T01:54:47.625Z,18.20
2019-03-29T01:57:17.219Z,18.83
2019-03-29T01:59:46.802Z,18.60
2019-03-29T02:02:16.380Z,21.07
2019-03-29T02:04:45.995Z,18.47
2019-03-29T02:07:15.757Z,21.00
2019-03-29T02:09:45.365Z,20.30
2019-03-29T02:12:14.983Z,21.30
2019-03-29T02:14:45.204Z,21.80
2019-03-29T02:17:14.861Z,20.50
2019-03-29T02:19:44.478Z,22.73
2019-03-29T02:22:14.039Z,22.47
2019-03-29T02:24:43.511Z,22.47
2019-03-29T02:27:13.305Z,23.17
2019-03-29T02:29:42.970Z,26.23
2019-03-29T02:32:12.761Z,26.37
2019-03-29T02:34:43.545Z,29.40
2019-03-29T02:37:13.597Z,26.53
2019-03-29T02:39:43.210Z,27.40
2019-03-29T02:42:14.712Z,28.10
2019-03-29T02:44:44.190Z,29.90
2019-03-29T02:47:13.889Z,28.97
2019-03-29T02:49:43.366Z,28.23
2019-03-29T02:52:13.009Z,29.50
2019-03-29T02:54:42.698Z,32.40
2019-03-29T02:57:12.501Z,31.63
2019-03-29T02:59:42.047Z,31.00
2019-03-29T03:02:11.994Z,33.30
2019-03-29T03:04:41.819Z,32.70
2019-03-29T03:07:11.615Z,34.10
2019-03-29T03:09:41.230Z,33.67
2019-03-29T03:12:10.875Z,35.80
2019-03-29T03:14:40.594Z,38.57
2019-03-29T03:17:10.244Z,35.13
2019-03-29T03:19:39.869Z,34.83
2019-03-29T03:22:09.470Z,37.70
2019-03-29T03:24:39.318Z,37.60
2019-03-29T03:27:08.878Z,34.57
2019-03-29T03:29:38.538Z,36.90
2019-03-29T03:32:08.126Z,35.90
2019-03-29T03:34:37.877Z,35.83
2019-03-29T03:37:07.514Z,37.47
2019-03-29T03:39:37.106Z,36.10
2019-03-29T03:42:06.677Z,36.67
2019-03-29T03:44:36.437Z,37.13
2019-03-29T03:47:06.069Z,35.30
2019-03-29T03:49:35.859Z,35.23
2019-03-29T03:52:05.721Z,36.67
2019-03-29T03:54:35.561Z,36.20
2019-03-29T03:57:06.719Z,37.60
2019-03-29T03:59:37.826Z,39.47
2019-03-29T04:02:07.732Z,36.47
2019-03-29T04:04:38.023Z,37.30
2019-03-29T04:07:07.768Z,35.50
2019-03-29T04:09:49.229Z,37.83
2019-03-29T04:12:08.805Z,35.83
2019-03-29T04:14:38.231Z,36.10
2019-03-29T04:17:07.746Z,37.77
2019-03-29T04:19:37.498Z,34.47
2019-03-29T04:24:40.522Z,35.63
2019-03-29T04:27:21.398Z,36.90
2019-03-29T04:30:02.233Z,36.50
2019-03-29T04:32:43.113Z,37.73
2019-03-29T04:35:12.819Z,39.33
2019-03-29T04:38:01.216Z,37.33
2019-03-29T04:40:49.568Z,36.80
2019-03-29T04:43:38.062Z,36.90
2019-03-29T04:46:26.443Z,37.67
2019-03-29T04:49:14.870Z,35.40
2019-03-29T04:52:03.292Z,38.27
2019-03-29T04:54:51.756Z,36.57
2019-03-29T04:57:40.162Z,36.80
2019-03-29T05:00:10.631Z,36.60
2019-03-29T05:02:59.044Z,36.73
2019-03-29T05:05:47.415Z,38.70
2019-03-29T05:08:16.839Z,38.40
2019-03-29T05:10:46.345Z,37.27
2019-03-29T05:13:17.778Z,38.33
2019-03-29T05:15:47.176Z,37.57
2019-03-29T05:18:16.536Z,39.80
2019-03-29T05:20:46.134Z,39.07
2019-03-29T05:23:15.677Z,36.63
2019-03-29T05:25:45.226Z,39.93
2019-03-29T05:28:14.608Z,40.13
2019-03-29T05:30:44.313Z,40.30
2019-03-29T05:33:13.695Z,38.83
2019-03-29T05:35:43.079Z,40.37
2019-03-29T05:38:12.546Z,40.87
2019-03-29T05:40:42.008Z,48.17
2019-03-29T05:43:11.564Z,40.20
2019-03-29T05:45:41.034Z,38.60
2019-03-29T05:48:10.581Z,40.97
2019-03-29T05:50:40.173Z,39.10
2019-03-29T05:53:09.715Z,38.87
2019-03-29T05:55:39.120Z,36.83
2019-03-29T05:58:08.690Z,37.70
2019-03-29T06:00:38.236Z,37.30
2019-03-29T06:03:10.016Z,36.47
2019-03-29T06:05:39.538Z,40.07
2019-03-29T06:08:08.938Z,39.73
2019-03-29T06:10:48.895Z,38.17
2019-03-29T06:13:11.126Z,38.10
2019-03-29T06:15:40.674Z,38.50
2019-03-29T06:18:10.184Z,38.33
2019-03-29T06:20:39.652Z,39.97
2019-03-29T06:23:09.059Z,37.03
2019-03-29T06:25:38.547Z,36.27
2019-03-29T06:28:08.107Z,36.63
2019-03-29T06:30:37.898Z,34.83
2019-03-29T06:33:07.390Z,35.40
2019-03-29T06:35:40.166Z,36.30
2019-03-29T06:38:11.096Z,34.73
2019-03-29T06:40:40.675Z,37.10
2019-03-29T06:43:10.087Z,36.20
2019-03-29T06:45:47.821Z,34.30
2019-03-29T06:48:10.689Z,36.20
2019-03-29T06:50:40.330Z,36.73
2019-03-29T06:53:09.941Z,37.30
2019-03-29T06:55:39.481Z,35.87
2019-03-29T06:58:08.860Z,34.87
2019-03-29T07:00:38.285Z,34.97
2019-03-29T07:03:08.138Z,32.73
2019-03-29T07:05:37.539Z,32.80
2019-03-29T07:08:07.015Z,32.03
2019-03-29T07:10:36.555Z,33.50
2019-03-29T07:13:05.995Z,33.33
2019-03-29T07:15:35.594Z,32.67
2019-03-29T07:18:05.139Z,31.90
2019-03-29T07:20:34.559Z,32.67
2019-03-29T07:23:07.319Z,30.70
2019-03-29T07:25:37.147Z,32.40
2019-03-29T07:28:06.502Z,31.60
2019-03-29T07:30:36.032Z,34.00
2019-03-29T07:33:05.498Z,32.87
2019-03-29T07:35:34.933Z,34.20
2019-03-29T07:38:04.523Z,32.20
2019-03-29T07:40:33.927Z,31.40
2019-03-29T07:43:03.547Z,31.30
2019-03-29T07:45:32.983Z,32.70
2019-03-29T07:48:02.549Z,29.50
2019-03-29T07:50:31.909Z,31.97
2019-03-29T07:53:01.614Z,30.93
2019-03-29T07:55:31.005Z,29.27
2019-03-29T07:58:00.629Z,29.20
2019-03-29T08:00:30.074Z,29.10
2019-03-29T08:02:59.519Z,29.10
2019-03-29T08:05:28.902Z,27.87
2019-03-29T08:07:58.411Z,28.20
2019-03-29T08:10:31.206Z,27.50
2019-03-29T08:12:59.840Z,27.20
2019-03-29T08:15:29.233Z,27.27
2019-03-29T08:18:01.350Z,25.80
2019-03-29T08:20:40.641Z,29.17
2019-03-29T08:23:00.904Z,29.60
2019-03-29T08:25:30.409Z,27.00
2019-03-29T08:27:59.759Z,26.00
2019-03-29T08:30:29.104Z,27.27
2019-03-29T08:32:58.571Z,23.40
2019-03-29T08:35:28.044Z,27.53
2019-03-29T08:37:57.436Z,26.07
2019-03-29T08:40:26.863Z,26.00
2019-03-29T08:42:56.366Z,25.37
2019-03-29T08:45:25.703Z,25.70
2019-03-29T08:47:55.095Z,25.17
2019-03-29T08:50:24.447Z,24.77
2019-03-29T08:52:53.870Z,24.87
2019-03-29T08:55:23.297Z,25.00
2019-03-29T08:57:52.736Z,24.80
2019-03-29T09:00:32.017Z,23.70
2019-03-29T09:03:02.248Z,24.10
2019-03-29T09:05:31.922Z,25.27
2019-03-29T09:08:01.577Z,23.70
2019-03-29T09:10:31.135Z,24.17
2019-03-29T09:13:04.073Z,23.83
2019-03-29T09:15:31.828Z,21.37
2019-03-29T09:18:01.300Z,21.70
2019-03-29T09:20:34.331Z,21.47
2019-03-29T09:23:02.057Z,19.20
2019-03-29T09:25:31.402Z,20.40
2019-03-29T09:28:00.816Z,18.90
2019-03-29T09:30:34.144Z,21.60
2019-03-29T09:33:03.609Z,19.03
2019-03-29T09:35:32.302Z,18.43
2019-03-29T09:38:00.995Z,19.40
2019-03-29T09:40:30.372Z,17.17
2019-03-29T09:43:07.308Z,16.57
2019-03-29T09:45:29.517Z,16.37
2019-03-29T09:47:58.764Z,16.30
2019-03-29T09:50:27.450Z,16.63
2019-03-29T09:52:56.221Z,17.20
2019-03-29T09:55:26.837Z,15.53
2019-03-29T09:57:55.516Z,15.93
2019-03-29T10:00:24.200Z,14.63
2019-03-29T10:02:52.999Z,14.40
2019-03-29T10:05:21.767Z,14.37
2019-03-29T10:07:50.517Z,14.07
2019-03-29T10:10:19.309Z,15.97
2019-03-29T10:12:48.054Z,15.00
2019-03-29T10:15:16.854Z,14.53
2019-03-29T10:17:45.751Z,12.93
2019-03-29T10:20:14.496Z,12.53
2019-03-29T10:22:43.140Z,11.07
2019-03-29T10:25:19.200Z,10.90
2019-03-29T10:27:42.332Z,10.90
2019-03-29T10:30:11.207Z,11.40
2019-03-29T10:32:39.922Z,12.10
2019-03-29T10:35:08.678Z,11.17
2019-03-29T10:37:37.370Z,10.60
2019-03-29T10:40:07.730Z,10.93
2019-03-29T10:42:39.760Z,10.20
2019-03-29T10:45:07.002Z,7.83
2019-03-29T10:47:43.882Z,8.70
2019-03-29T10:50:07.523Z,6.00
2019-03-29T10:52:36.358Z,7.43
2019-03-29T10:55:05.274Z,5.90
2019-03-29T10:57:34.133Z,6.40
2019-03-29T11:00:02.851Z,4.77
2019-03-29T11:02:31.661Z,4.40
2019-03-29T11:05:00.569Z,2.90
2019-03-29T11:07:29.596Z,2.90
2019-03-29T11:09:58.346Z,3.70
2019-03-29T11:12:27.151Z,3.30
2019-03-29T11:14:55.889Z,3.60
2019-03-29T11:17:24.604Z,3.80
2019-03-29T11:19:53.393Z,2.67
2019-03-29T11:22:22.975Z,2.50
2019-03-29T11:24:53.812Z,3.37
2019-03-29T11:27:23.467Z,3.47
2019-03-29T11:29:52.931Z,2.80
2019-03-29T11:32:22.393Z,4.07
2019-03-29T11:34:52.003Z,3.60
2019-03-29T11:37:30.699Z,3.40
2019-03-29T11:40:00.128Z,3.90
2019-03-29T11:42:29.651Z,4.60
2019-03-29T11:44:59.035Z,4.43
2019-03-29T11:47:34.351Z,4.43
2019-03-29T11:50:04.099Z,4.50
2019-03-29T11:52:34.014Z,5.37
2019-03-29T11:55:03.703Z,4.30
2019-03-29T11:57:33.163Z,3.57
2019-03-29T12:00:02.605Z,2.60
2019-03-29T12:02:32.113Z,3.50
2019-03-29T12:05:01.528Z,3.27
2019-03-29T12:07:30.979Z,3.70
2019-03-29T12:10:00.395Z,3.53
2019-03-29T12:12:29.955Z,3.57
2019-03-29T12:14:59.304Z,3.77
2019-03-29T12:17:28.841Z,3.07
2019-03-29T12:19:58.251Z,3.40
2019-03-29T12:22:27.914Z,3.57
2019-03-29T12:24:57.418Z,3.73
2019-03-29T12:27:26.855Z,3.17
2019-03-29T12:29:56.222Z,3.30
2019-03-29T12:32:26.105Z,2.70
2019-03-29T12:34:55.470Z,3.50
2019-03-29T12:37:24.912Z,3.53
2019-03-29T12:39:54.379Z,3.57
2019-03-29T12:42:23.881Z,3.80
2019-03-29T12:44:53.331Z,3.67
2019-03-29T12:47:22.848Z,3.50
2019-03-29T12:49:52.279Z,3.77
2019-03-29T12:52:21.799Z,3.73
2019-03-29T12:54:51.477Z,3.70
2019-03-29T12:57:21.039Z,3.73
2019-03-29T12:59:50.390Z,3.77
2019-03-29T13:02:19.988Z,4.47
2019-03-29T13:04:49.420Z,3.97
2019-03-29T13:07:19.011Z,3.77
2019-03-29T13:09:48.495Z,3.30
2019-03-29T13:12:17.948Z,3.30
2019-03-29T13:14:47.609Z,4.10
2019-03-29T13:17:17.531Z,3.60
2019-03-29T13:19:47.066Z,4.00
2019-03-29T13:22:16.480Z,3.20
2019-03-29T13:24:45.929Z,4.23
2019-03-29T13:27:15.389Z,4.13
2019-03-29T13:29:44.831Z,4.80
2019-03-29T13:32:14.291Z,4.13
2019-03-29T13:34:43.826Z,5.03
2019-03-29T13:37:13.308Z,5.43
2019-03-29T13:39:42.852Z,4.63
2019-03-29T13:42:12.337Z,4.73
2019-03-29T13:44:41.833Z,4.97
2019-03-29T13:47:11.378Z,5.30
2019-03-29T13:49:40.920Z,5.23
2019-03-29T13:52:10.431Z,4.97
2019-03-29T13:54:39.839Z,5.33
2019-03-29T13:57:09.407Z,5.77
2019-03-29T13:59:38.754Z,5.50
2019-03-29T14:02:08.139Z,6.37
2019-03-29T14:04:37.541Z,5.97
2019-03-29T14:07:06.957Z,6.53
2019-03-29T14:09:36.450Z,6.00
2019-03-29T14:12:05.918Z,6.63
2019-03-29T14:14:38.352Z,6.63
2019-03-29T14:17:06.759Z,6.10
2019-03-29T14:19:36.270Z,6.03
2019-03-29T14:22:05.692Z,6.27
2019-03-29T14:24:35.165Z,6.53
2019-03-29T14:27:04.643Z,6.87
2019-03-29T14:29:34.135Z,6.07
2019-03-29T14:32:03.552Z,6.27
2019-03-29T14:34:33.028Z,6.70
2019-03-29T14:37:02.360Z,5.83
2019-03-29T14:39:31.757Z,6.93
2019-03-29T14:42:01.306Z,6.67
2019-03-29T14:44:30.723Z,6.73
2019-03-29T14:47:00.230Z,6.77
2019-03-29T14:49:29.620Z,6.23
2019-03-29T14:51:59.192Z,5.67
2019-03-29T14:54:28.608Z,5.57
2019-03-29T14:56:58.010Z,6.20
2019-03-29T14:59:27.410Z,6.07
2019-03-29T15:01:56.930Z,5.60
2019-03-29T15:04:26.396Z,5.33
2019-03-29T15:06:55.993Z,5.37
2019-03-29T15:09:25.537Z,6.00
2019-03-29T15:11:54.977Z,6.13
2019-03-29T15:14:24.420Z,5.73
2019-03-29T15:16:53.970Z,5.90
2019-03-29T15:19:23.352Z,5.43
2019-03-29T15:21:52.771Z,5.43
2019-03-29T15:24:22.252Z,5.50
2019-03-29T15:26:51.743Z,6.03
2019-03-29T15:29:21.524Z,5.33
2019-03-29T15:31:51.073Z,5.20
2019-03-29T15:34:21.564Z,5.60
2019-03-29T15:36:51.006Z,6.73
2019-03-29T15:39:20.383Z,5.00
2019-03-29T15:41:49.744Z,5.43
2019-03-29T15:44:19.257Z,6.10
2019-03-29T15:46:48.835Z,5.17
2019-03-29T15:49:18.309Z,5.00
2019-03-29T15:51:47.832Z,4.70
2019-03-29T15:54:17.289Z,5.20
2019-03-29T15:56:46.842Z,5.33
2019-03-29T15:59:16.356Z,5.10
2019-03-29T16:01:45.851Z,5.30
2019-03-29T16:04:15.359Z,5.33
2019-03-29T16:06:44.770Z,4.63
2019-03-29T16:09:14.203Z,4.73
2019-03-29T16:11:43.659Z,5.70
2019-03-29T16:14:13.481Z,5.20
2019-03-29T16:16:45.887Z,4.67
2019-03-29T16:19:14.107Z,4.97
2019-03-29T16:21:43.574Z,5.07
2019-03-29T16:24:12.984Z,5.23
2019-03-29T16:26:42.475Z,5.27
2019-03-29T16:29:11.949Z,5.17
2019-03-29T16:31:41.581Z,4.73
2019-03-29T16:34:11.033Z,5.47
2019-03-29T16:36:40.485Z,6.20
2019-03-29T16:39:10.205Z,6.10
2019-03-29T16:41:39.749Z,5.00
2019-03-29T16:44:09.209Z,5.53
2019-03-29T16:46:38.640Z,6.20
2019-03-29T16:49:08.083Z,6.60
2019-03-29T16:51:37.737Z,6.00
2019-03-29T16:54:07.246Z,5.77
2019-03-29T16:56:36.708Z,6.93
2019-03-29T16:59:06.369Z,6.07
2019-03-29T17:01:35.731Z,7.60
2019-03-29T17:04:05.239Z,6.77
2019-03-29T17:06:34.726Z,7.60
2019-03-29T17:09:23.109Z,7.30
2019-03-29T17:12:11.564Z,6.67
2019-03-29T17:14:59.938Z,7.77
2019-03-29T17:17:48.480Z,6.77
2019-03-29T17:20:29.596Z,6.53
2019-03-29T17:23:10.921Z,8.70
2019-03-29T17:25:51.439Z,7.40
2019-03-29T17:28:31.908Z,8.30
2019-03-29T17:31:13.582Z,8.00
2019-03-29T17:33:54.303Z,7.93
2019-03-29T17:36:35.063Z,7.20
2019-03-29T17:39:15.920Z,8.40
2019-03-29T17:41:56.812Z,7.40
2019-03-29T17:44:37.754Z,7.67
2019-03-29T17:47:19.016Z,8.10
2019-03-29T17:50:00.053Z,8.87
2019-03-29T17:52:40.961Z,7.83
2019-03-29T17:55:10.518Z,8.80
2019-03-29T17:57:40.115Z,8.53
2019-03-29T18:00:10.926Z,7.93
2019-03-29T18:02:40.438Z,8.97
2019-03-29T18:05:10.262Z,9.20
2019-03-29T18:07:39.808Z,8.23
2019-03-29T18:10:09.968Z,8.97
2019-03-29T18:12:39.498Z,9.83
2019-03-29T18:15:15.692Z,9.40
2019-03-29T18:17:45.299Z,8.70
2019-03-29T18:20:15.254Z,9.23
2019-03-29T18:22:44.893Z,8.70
2019-03-29T18:25:14.798Z,9.00
2019-03-29T18:27:44.297Z,9.60
2019-03-29T18:30:15.144Z,9.00
2019-03-29T18:32:44.864Z,10.10
2019-03-29T18:35:14.458Z,9.30
2019-03-29T18:37:43.992Z,10.67
2019-03-29T18:40:28.832Z,9.00
2019-03-29T18:42:58.386Z,10.63
2019-03-29T18:45:27.960Z,9.27
2019-03-29T18:48:00.534Z,10.13
2019-03-29T18:50:29.976Z,10.10
2019-03-29T18:52:59.374Z,10.73
2019-03-29T18:55:28.910Z,11.07
2019-03-29T18:57:58.389Z,11.37
2019-03-29T19:00:34.908Z,10.43
2019-03-29T19:03:04.564Z,10.33
2019-03-29T19:05:34.513Z,11.10
2019-03-29T19:08:03.943Z,10.40
2019-03-29T19:10:33.755Z,10.13
2019-03-29T19:13:03.454Z,10.20
2019-03-29T19:15:33.006Z,10.90
2019-03-29T19:18:02.583Z,10.13
2019-03-29T19:20:32.098Z,10.20
2019-03-29T19:23:01.589Z,10.80
2019-03-29T19:25:31.194Z,10.90
2019-03-29T19:28:00.702Z,10.90
2019-03-29T19:30:30.150Z,10.17
2019-03-29T19:32:59.978Z,11.13
2019-03-29T19:35:30.004Z,11.90
2019-03-29T19:38:09.058Z,12.70
2019-03-29T19:40:38.546Z,11.80
2019-03-29T19:43:08.338Z,11.77
2019-03-29T19:45:37.899Z,11.20
2019-03-29T19:48:08.669Z,10.63
2019-03-29T19:50:38.182Z,11.17
2019-03-29T19:53:07.813Z,10.10
2019-03-29T19:55:37.469Z,11.83
2019-03-29T19:58:07.092Z,13.40
2019-03-29T20:00:41.313Z,13.83
2019-03-29T20:03:10.962Z,14.50
2019-03-29T20:05:40.510Z,12.30
2019-03-29T20:08:09.965Z,13.60
2019-03-29T20:10:39.591Z,13.00
2019-03-29T20:13:09.247Z,11.90
2019-03-29T20:15:38.660Z,11.93
2019-03-29T20:18:08.197Z,10.70
2019-03-29T20:20:37.718Z,11.03
2019-03-29T20:23:07.911Z,10.97
2019-03-29T20:25:37.466Z,9.43
2019-03-29T20:28:06.941Z,11.70
2019-03-29T20:30:36.360Z,11.00
2019-03-29T20:33:06.118Z,10.23
2019-03-29T20:35:36.209Z,10.27
2019-03-29T20:38:05.666Z,10.40
2019-03-29T20:40:35.301Z,8.27
2019-03-29T20:43:04.874Z,9.37
2019-03-29T20:45:34.295Z,9.20
2019-03-29T20:48:13.065Z,8.43
2019-03-29T20:50:42.519Z,8.70
2019-03-29T20:53:12.036Z,8.37
2019-03-29T20:55:41.579Z,7.13
2019-03-29T20:58:10.965Z,8.50
2019-03-29T21:00:40.571Z,8.30
2019-03-29T21:03:10.019Z,7.80
2019-03-29T21:05:39.425Z,9.23
2019-03-29T21:08:09.006Z,7.80
2019-03-29T21:10:39.446Z,8.40
2019-03-29T21:13:08.965Z,7.70
2019-03-29T21:15:38.554Z,9.70
2019-03-29T21:18:08.044Z,8.57
2019-03-29T21:20:37.711Z,8.20
2019-03-29T21:23:07.273Z,7.60
2019-03-29T21:25:36.776Z,7.57
2019-03-29T21:28:06.388Z,7.50
2019-03-29T21:30:36.001Z,7.07
2019-03-29T21:33:05.510Z,8.33
2019-03-29T21:35:35.066Z,7.63
2019-03-29T21:38:04.487Z,7.70
2019-03-29T21:40:34.197Z,7.50
2019-03-29T21:43:03.747Z,7.93
2019-03-29T21:45:33.472Z,10.43
2019-03-29T21:48:26.850Z,7.90
2019-03-29T21:50:34.075Z,8.20
2019-03-29T21:53:03.506Z,8.87
2019-03-29T21:55:33.288Z,8.47
2019-03-29T21:58:02.780Z,9.27
2019-03-29T22:00:32.179Z,9.80
2019-03-29T22:03:01.667Z,9.30
2019-03-29T22:05:31.185Z,9.03
2019-03-29T22:08:00.621Z,9.67
2019-03-29T22:10:30.066Z,9.43
2019-03-29T22:12:59.553Z,10.17
2019-03-29T22:15:29.604Z,10.03
2019-03-29T22:17:59.157Z,9.87
2019-03-29T22:20:27.863Z,9.27
2019-03-29T22:22:56.670Z,9.20
2019-03-29T22:25:25.345Z,9.97
2019-03-29T22:27:54.101Z,9.70
2019-03-29T22:30:23.776Z,9.90
2019-03-29T22:32:53.226Z,13.20
2019-03-29T22:35:22.747Z,11.10
2019-03-29T22:37:52.137Z,8.43
2019-03-29T22:40:21.576Z,9.30
2019-03-29T22:42:51.097Z,8.93
2019-03-29T22:45:20.546Z,9.30
2019-03-29T22:47:50.021Z,9.77
2019-03-29T22:50:19.631Z,9.63
2019-03-29T22:52:49.511Z,9.30
2019-03-29T22:55:19.202Z,9.47
2019-03-29T22:57:48.729Z,9.00
2019-03-29T23:00:30.704Z,9.50
2019-03-29T23:03:00.204Z,8.40
2019-03-29T23:05:29.762Z,8.93
2019-03-29T23:07:59.224Z,8.70
2019-03-29T23:10:28.682Z,9.13
2019-03-29T23:12:58.044Z,9.00
2019-03-29T23:15:27.382Z,8.43
2019-03-29T23:17:56.808Z,9.73
2019-03-29T23:20:26.146Z,9.13
2019-03-29T23:22:55.551Z,8.97
2019-03-29T23:25:25.115Z,8.80
2019-03-29T23:27:54.698Z,8.40
2019-03-29T23:30:24.428Z,9.20
2019-03-29T23:32:53.796Z,8.90
2019-03-29T23:35:23.290Z,8.07
2019-03-29T23:37:52.754Z,8.87
2019-03-29T23:40:22.182Z,8.70
2019-03-29T23:42:51.763Z,9.20
2019-03-29T23:45:21.404Z,10.03
2019-03-29T23:47:50.944Z,10.40
2019-03-29T23:50:21.258Z,9.90
2019-03-29T23:52:50.740Z,9.03
2019-03-29T23:55:39.266Z,10.80
2019-03-29T23:58:27.596Z,9.70
